createdAt,value
2018-12-07T00:00:04.592Z,23.23
2018-12-07T00:02:37.580Z,22.33
2018-12-07T00:05:13.206Z,22.63
2018-12-07T00:07:47.787Z,25.83
2018-12-07T00:10:25.520Z,24.23
2018-12-07T00:13:00.048Z,24.77
2018-12-07T00:15:33.172Z,23.17
2018-12-07T00:18:07.271Z,24.63
2018-12-07T00:20:45.669Z,24.20
2018-12-07T00:23:19.020Z,22.70
2018-12-07T00:25:52.896Z,24.33
2018-12-07T00:28:26.397Z,21.80
2018-12-07T00:30:59.259Z,22.67
2018-12-07T00:33:32.462Z,23.97
2018-12-07T00:36:05.867Z,21.03
2018-12-07T00:38:41.584Z,20.63
2018-12-07T00:41:15.549Z,21.80
2018-12-07T00:43:51.170Z,21.77
2018-12-07T00:46:24.794Z,23.33
2018-12-07T00:48:57.437Z,21.80
2018-12-07T00:51:33.864Z,23.57
2018-12-07T00:54:07.138Z,24.17
2018-12-07T00:56:44.719Z,22.53
2018-12-07T00:59:17.888Z,22.33
2018-12-07T01:01:50.815Z,22.87
2018-12-07T01:04:25.068Z,24.73
2018-12-07T01:06:58.429Z,22.13
2018-12-07T01:09:31.000Z,22.30
2018-12-07T01:12:03.952Z,22.67
2018-12-07T01:14:37.129Z,24.40
2018-12-07T01:17:14.424Z,22.63
2018-12-07T01:19:47.571Z,23.40
2018-12-07T01:22:20.509Z,23.93
2018-12-07T01:24:51.040Z,23.67
2018-12-07T01:27:24.352Z,23.80
2018-12-07T01:30:01.366Z,20.90
2018-12-07T01:32:33.877Z,23.13
2018-12-07T01:37:42.485Z,22.70
2018-12-07T01:40:15.686Z,20.37
2018-12-07T01:42:52.882Z,21.57
2018-12-07T01:45:23.798Z,21.40
2018-12-07T01:47:56.994Z,21.37
2018-12-07T01:50:29.946Z,19.97
2018-12-07T01:53:03.420Z,20.87
2018-12-07T01:55:36.625Z,22.00
2018-12-07T01:58:09.213Z,19.60
2018-12-07T02:00:42.421Z,21.63
2018-12-07T02:03:15.305Z,20.63
2018-12-07T02:05:48.563Z,21.87
2018-12-07T02:08:25.241Z,20.23
2018-12-07T02:10:58.496Z,19.93
2018-12-07T02:13:36.726Z,21.17
2018-12-07T02:16:09.900Z,21.67
2018-12-07T02:18:42.880Z,21.43
2018-12-07T02:21:15.247Z,22.97
2018-12-07T02:23:48.452Z,21.10
2018-12-07T02:26:25.241Z,21.73
2018-12-07T02:28:58.432Z,21.83
2018-12-07T02:31:31.766Z,20.50
2018-12-07T02:34:04.889Z,21.33
2018-12-07T02:36:38.088Z,21.73
2018-12-07T02:39:15.417Z,20.17
2018-12-07T02:41:49.226Z,19.83
2018-12-07T02:44:21.975Z,20.90
2018-12-07T02:46:59.259Z,20.83
2018-12-07T02:49:32.492Z,20.33
2018-12-07T02:52:05.042Z,21.43
2018-12-07T02:54:47.330Z,21.27
2018-12-07T02:57:24.391Z,20.97
2018-12-07T03:00:00.926Z,19.80
2018-12-07T03:02:34.227Z,19.80
2018-12-07T03:05:11.585Z,20.80
2018-12-07T03:07:45.529Z,19.87
2018-12-07T03:10:18.320Z,20.73
2018-12-07T03:12:55.727Z,20.20
2018-12-07T03:15:29.101Z,20.27
2018-12-07T03:18:08.178Z,21.13
2018-12-07T03:20:40.552Z,19.80
2018-12-07T03:23:17.755Z,19.83
2018-12-07T03:25:50.945Z,20.27
2018-12-07T03:28:23.465Z,19.63
2018-12-07T03:30:56.130Z,20.30
2018-12-07T03:33:29.270Z,18.90
2018-12-07T03:36:02.894Z,20.63
2018-12-07T03:38:36.077Z,20.73
2018-12-07T03:41:09.682Z,19.93
2018-12-07T03:43:42.666Z,19.70
2018-12-07T03:46:16.349Z,18.77
2018-12-07T03:48:49.419Z,19.13
2018-12-07T03:53:58.722Z,19.97
2018-12-07T03:56:31.706Z,20.37
2018-12-07T03:59:04.878Z,20.03
2018-12-07T04:01:41.994Z,20.87
2018-12-07T04:04:15.503Z,19.53
2018-12-07T04:06:53.485Z,19.63
2018-12-07T04:09:26.654Z,20.63
2018-12-07T04:12:03.893Z,19.87
2018-12-07T04:14:37.069Z,19.30
2018-12-07T04:17:09.522Z,18.97
2018-12-07T04:19:45.933Z,19.77
2018-12-07T04:22:18.709Z,20.20
2018-12-07T04:24:55.280Z,20.73
2018-12-07T04:27:28.482Z,20.67
2018-12-07T04:30:15.504Z,20.20
2018-12-07T04:32:48.796Z,19.13
2018-12-07T04:35:22.032Z,20.07
2018-12-07T04:37:58.523Z,19.63
2018-12-07T04:40:32.985Z,19.10
2018-12-07T04:43:05.994Z,19.93
2018-12-07T04:45:39.061Z,19.73
2018-12-07T04:48:12.214Z,19.43
2018-12-07T04:50:45.388Z,18.97
2018-12-07T04:53:19.368Z,20.43
2018-12-07T04:55:57.085Z,21.33
2018-12-07T04:58:30.041Z,21.63
2018-12-07T05:23:49.334Z,19.67
2018-12-07T05:26:21.546Z,20.20
2018-12-07T05:28:54.182Z,21.07
2018-12-07T05:31:27.338Z,20.07
2018-12-07T05:33:59.558Z,19.87
2018-12-07T05:36:32.767Z,20.33
2018-12-07T05:39:08.950Z,20.30
2018-12-07T05:41:45.318Z,19.80
2018-12-07T05:44:18.401Z,19.90
2018-12-07T05:46:54.847Z,20.07
2018-12-07T05:49:27.843Z,18.93
2018-12-07T05:52:04.452Z,19.33
2018-12-07T05:54:37.440Z,19.63
2018-12-07T05:57:10.442Z,26.97
2018-12-07T05:59:43.459Z,19.27
2018-12-07T06:02:15.884Z,20.87
2018-12-07T06:04:52.148Z,21.23
2018-12-07T06:07:24.417Z,19.03
2018-12-07T06:09:56.700Z,20.43
2018-12-07T06:12:29.253Z,19.27
2018-12-07T06:15:06.275Z,20.37
2018-12-07T06:17:38.705Z,20.87
2018-12-07T06:20:15.052Z,19.43
2018-12-07T06:22:48.109Z,20.20
2018-12-07T06:25:21.445Z,20.63
2018-12-07T06:27:54.627Z,22.03
2018-12-07T06:30:28.066Z,19.30
2018-12-07T06:33:01.188Z,19.70
2018-12-07T06:35:34.295Z,20.17
2018-12-07T06:38:06.454Z,18.97
2018-12-07T06:40:39.637Z,18.97
2018-12-07T06:43:11.874Z,19.93
2018-12-07T06:45:49.428Z,21.27
2018-12-07T06:48:22.329Z,20.43
2018-12-07T06:50:58.675Z,21.43
2018-12-07T06:53:31.902Z,21.67
2018-12-07T06:56:04.180Z,19.07
2018-12-07T06:58:37.358Z,20.67
2018-12-07T07:01:10.447Z,20.53
2018-12-07T07:03:43.881Z,20.07
2018-12-07T07:06:20.336Z,19.13
2018-12-07T07:08:57.453Z,20.10
2018-12-07T07:11:29.605Z,20.47
2018-12-07T07:14:02.216Z,20.20
2018-12-07T07:16:32.350Z,20.87
2018-12-07T07:19:04.787Z,19.27
2018-12-07T07:21:37.173Z,19.87
2018-12-07T07:24:10.440Z,20.43
2018-12-07T07:26:49.802Z,18.93
2018-12-07T07:29:22.837Z,20.47
2018-12-07T07:31:59.226Z,21.93
2018-12-07T07:34:35.518Z,21.00
2018-12-07T07:37:08.585Z,21.43
2018-12-07T07:39:45.638Z,20.90
2018-12-07T07:42:18.719Z,21.40
2018-12-07T07:44:51.725Z,20.80
2018-12-07T07:47:27.938Z,21.00
2018-12-07T07:50:00.069Z,20.50
2018-12-07T07:52:32.791Z,21.07
2018-12-07T07:55:09.076Z,19.97
2018-12-07T07:57:42.881Z,21.13
2018-12-07T08:00:15.688Z,20.63
2018-12-07T08:02:48.025Z,21.50
2018-12-07T08:05:20.641Z,21.03
2018-12-07T08:07:53.089Z,21.13
2018-12-07T08:10:25.375Z,21.70
2018-12-07T08:12:58.773Z,21.70
2018-12-07T08:15:35.107Z,20.50
2018-12-07T08:18:11.817Z,19.67
2018-12-07T08:20:44.660Z,21.60
2018-12-07T08:23:16.948Z,21.70
2018-12-07T08:25:49.721Z,21.87
2018-12-07T08:28:22.928Z,25.83
2018-12-07T08:33:32.247Z,20.80
2018-12-07T08:36:04.451Z,21.17
2018-12-07T08:38:40.633Z,20.93
2018-12-07T08:41:12.956Z,22.37
2018-12-07T08:43:45.951Z,22.83
2018-12-07T08:46:18.625Z,22.13
2018-12-07T08:48:51.525Z,22.37
2018-12-07T08:51:24.573Z,22.97
2018-12-07T08:53:57.460Z,21.50
2018-12-07T08:56:30.614Z,22.07
2018-12-07T08:59:02.862Z,20.97
2018-12-07T09:01:39.184Z,22.40
2018-12-07T09:04:12.220Z,22.30
2018-12-07T09:06:48.504Z,20.47
2018-12-07T09:09:25.039Z,20.87
2018-12-07T09:11:57.333Z,20.80
2018-12-07T09:14:29.585Z,20.63
2018-12-07T09:17:06.334Z,20.93
2018-12-07T09:19:59.559Z,20.07
2018-12-07T09:22:33.409Z,20.67
2018-12-07T09:25:27.592Z,23.60
2018-12-07T09:37:41.533Z,21.37
2018-12-07T09:40:17.078Z,22.10
2018-12-07T09:42:53.747Z,21.30
2018-12-07T09:45:41.830Z,21.20
2018-12-07T09:48:14.368Z,22.03
2018-12-07T09:50:47.979Z,21.30
2018-12-07T09:53:29.756Z,22.53
2018-12-07T09:56:24.889Z,23.10
2018-12-07T09:59:03.463Z,22.30
2018-12-07T10:01:43.098Z,22.87
2018-12-07T10:04:16.427Z,22.43
2018-12-07T10:06:50.663Z,21.60
2018-12-07T10:09:23.844Z,20.90
2018-12-07T10:12:12.857Z,21.43
2018-12-07T10:14:54.796Z,22.33
2018-12-07T10:17:27.699Z,20.87
2018-12-07T10:20:00.660Z,19.37
2018-12-07T10:22:33.457Z,20.50
2018-12-07T10:25:12.061Z,20.43
2018-12-07T10:27:45.169Z,20.43
2018-12-07T10:30:23.215Z,21.47
2018-12-07T10:33:15.059Z,19.67
2018-12-07T10:35:47.817Z,20.20
2018-12-07T10:38:25.841Z,20.17
2018-12-07T10:46:09.504Z,20.70
2018-12-07T10:48:43.657Z,18.93
2018-12-07T10:51:18.841Z,20.43
2018-12-07T10:53:52.206Z,19.37
2018-12-07T10:56:25.631Z,19.47
2018-12-07T10:59:00.477Z,19.53
2018-12-07T11:01:42.213Z,20.07
2018-12-07T11:07:54.059Z,19.47
2018-12-07T11:10:39.607Z,18.10
2018-12-07T11:13:19.851Z,19.60
2018-12-07T11:15:58.579Z,17.87
2018-12-07T11:18:35.840Z,19.53
2018-12-07T11:21:11.286Z,19.23
2018-12-07T11:25:53.760Z,21.63
2018-12-07T11:28:31.174Z,20.43
2018-12-07T11:31:12.459Z,21.90
2018-12-07T11:33:54.337Z,20.77
2018-12-07T11:36:27.479Z,20.80
2018-12-07T11:39:00.716Z,20.17
2018-12-07T11:41:33.721Z,21.20
2018-12-07T11:44:07.129Z,20.33
2018-12-07T11:46:40.400Z,19.80
2018-12-07T11:49:17.552Z,21.23
2018-12-07T11:51:51.272Z,19.83
2018-12-07T11:54:24.701Z,19.47
2018-12-07T11:56:57.971Z,21.73
2018-12-07T11:59:31.027Z,20.97
2018-12-07T12:02:04.307Z,20.20
2018-12-07T12:04:37.667Z,20.93
2018-12-07T12:07:23.697Z,20.53
2018-12-07T12:10:00.740Z,19.93
2018-12-07T12:12:34.004Z,21.97
2018-12-07T12:15:07.597Z,22.63
2018-12-07T12:17:44.878Z,22.17
2018-12-07T12:20:18.506Z,21.10
2018-12-07T12:23:07.015Z,22.63
2018-12-07T12:26:05.033Z,21.90
2018-12-07T12:28:55.500Z,19.93
2018-12-07T12:31:40.979Z,21.43
2018-12-07T12:38:22.689Z,22.37
2018-12-07T12:55:23.184Z,21.77
2018-12-07T12:58:12.544Z,21.80
2018-12-07T13:01:18.867Z,22.10
2018-12-07T13:04:12.565Z,20.87
2018-12-07T13:07:03.497Z,21.27
2018-12-07T13:09:52.217Z,20.80
2018-12-07T13:12:40.242Z,21.90
2018-12-07T13:21:56.956Z,21.97
2018-12-07T13:28:45.928Z,21.53
2018-12-07T13:31:56.346Z,23.03
2018-12-07T13:34:51.093Z,22.90
2018-12-07T14:40:52.403Z,27.00
2018-12-07T14:43:30.597Z,26.53
2018-12-07T14:46:06.114Z,28.40
2018-12-07T14:48:45.546Z,27.33
2018-12-07T14:51:35.768Z,27.13
2018-12-07T14:54:30.299Z,26.53
2018-12-07T14:57:04.961Z,27.40
2018-12-07T14:59:47.255Z,27.20
2018-12-07T15:02:26.430Z,27.57
2018-12-07T15:17:54.839Z,27.60
2018-12-07T15:20:48.003Z,27.23
2018-12-07T15:23:37.383Z,28.43
2018-12-07T15:26:22.757Z,26.80
2018-12-07T15:29:19.113Z,29.03
2018-12-07T15:32:08.939Z,27.87
2018-12-07T15:40:57.257Z,28.67
2018-12-07T15:47:38.614Z,30.90
2018-12-07T15:50:44.311Z,28.80
2018-12-07T15:53:23.104Z,30.60
2018-12-07T15:56:13.058Z,28.27
2018-12-07T15:59:11.181Z,30.57
2018-12-07T16:01:48.425Z,30.87
2018-12-07T16:07:20.246Z,30.37
2018-12-07T16:10:08.889Z,31.17
2018-12-07T16:27:02.468Z,29.33
2018-12-07T16:43:33.199Z,32.50
2018-12-07T16:49:25.213Z,30.70
2018-12-07T16:52:26.106Z,32.37
2018-12-07T16:55:16.969Z,34.00
2018-12-07T17:01:17.734Z,33.40
2018-12-07T17:04:12.869Z,34.13
2018-12-07T17:06:51.660Z,33.67
2018-12-07T17:09:25.244Z,34.33
2018-12-07T17:12:01.609Z,35.37
2018-12-07T17:14:35.249Z,35.43
2018-12-07T17:17:28.556Z,33.10
2018-12-07T17:20:05.948Z,33.87
2018-12-07T17:22:38.803Z,33.93
2018-12-07T17:25:12.098Z,32.10
2018-12-07T17:27:45.394Z,32.07
2018-12-07T17:30:17.965Z,32.23
2018-12-07T17:32:51.530Z,33.03
2018-12-07T17:35:24.316Z,32.87
2018-12-07T17:38:00.682Z,33.43
2018-12-07T17:40:33.965Z,34.00
2018-12-07T17:43:06.892Z,33.13
2018-12-07T17:48:21.698Z,35.07
2018-12-07T17:50:55.062Z,35.10
2018-12-07T17:53:28.129Z,33.37
2018-12-07T17:56:04.679Z,33.63
2018-12-07T17:58:37.795Z,35.00
2018-12-07T18:01:10.956Z,34.87
2018-12-07T18:03:43.235Z,34.07
2018-12-07T18:06:15.765Z,34.50
2018-12-07T18:08:48.836Z,33.67
2018-12-07T18:11:25.074Z,33.90
2018-12-07T18:13:57.578Z,33.03
2018-12-07T18:16:33.986Z,33.03
2018-12-07T18:19:10.582Z,35.10
2018-12-07T18:21:44.286Z,31.93
2018-12-07T18:24:16.944Z,35.03
2018-12-07T18:26:50.130Z,34.97
2018-12-07T18:29:23.235Z,33.80
2018-12-07T18:31:55.886Z,35.17
2018-12-07T18:34:29.050Z,33.53
2018-12-07T18:37:05.598Z,34.13
2018-12-07T18:39:38.101Z,35.13
2018-12-07T18:42:11.492Z,32.03
2018-12-07T18:44:44.326Z,34.20
2018-12-07T18:47:17.475Z,33.47
2018-12-07T18:49:49.904Z,34.30
2018-12-07T18:52:22.214Z,33.30
2018-12-07T18:54:55.518Z,33.10
2018-12-07T18:57:28.742Z,32.90
2018-12-07T19:00:01.745Z,33.60
2018-12-07T19:02:35.005Z,32.83
2018-12-07T19:05:08.301Z,33.87
2018-12-07T19:07:41.420Z,33.77
2018-12-07T19:10:18.543Z,34.87
2018-12-07T19:12:51.666Z,35.10
2018-12-07T19:15:29.627Z,36.03
2018-12-07T19:18:02.539Z,34.83
2018-12-07T19:20:35.600Z,35.73
2018-12-07T19:23:08.700Z,36.10
2018-12-07T19:25:42.036Z,34.70
2018-12-07T19:28:16.325Z,36.33
2018-12-07T19:30:54.186Z,35.97
2018-12-07T19:33:27.643Z,34.27
2018-12-07T19:36:01.002Z,35.23
2018-12-07T19:38:34.165Z,34.83
2018-12-07T19:41:11.417Z,36.30
2018-12-07T19:43:48.479Z,36.00
2018-12-07T19:46:21.144Z,35.70
2018-12-07T19:48:58.243Z,35.63
2018-12-07T19:51:35.407Z,37.83
2018-12-07T19:54:08.660Z,34.67
2018-12-07T19:56:41.158Z,34.73
2018-12-07T19:59:14.642Z,34.70
2018-12-07T20:01:47.631Z,35.90
2018-12-07T20:04:20.846Z,34.93
2018-12-07T20:06:54.166Z,34.83
2018-12-07T20:09:26.916Z,34.63
2018-12-07T20:11:59.438Z,37.00
2018-12-07T20:14:32.884Z,36.40
2018-12-07T20:17:05.621Z,35.53
2018-12-07T20:19:38.958Z,36.77
2018-12-07T20:22:12.226Z,38.13
2018-12-07T20:24:45.650Z,37.47
2018-12-07T20:27:18.810Z,35.37
2018-12-07T20:29:52.375Z,36.97
2018-12-07T20:32:25.304Z,37.20
2018-12-07T20:34:56.775Z,37.10
2018-12-07T20:37:27.538Z,37.57
2018-12-07T20:40:00.148Z,37.00
2018-12-07T20:42:32.878Z,36.63
2018-12-07T20:45:06.527Z,36.93
2018-12-07T20:47:39.729Z,37.80
2018-12-07T20:50:13.476Z,44.07
2018-12-07T20:52:46.676Z,42.73
2018-12-07T20:55:20.023Z,41.67
2018-12-07T20:57:52.949Z,39.73
2018-12-07T21:00:26.241Z,37.33
2018-12-07T21:02:59.609Z,40.83
2018-12-07T21:05:48.753Z,39.60
2018-12-07T21:09:14.050Z,36.83
2018-12-07T21:11:55.968Z,36.47
2018-12-07T21:14:34.194Z,38.00
2018-12-07T21:17:12.194Z,37.07
2018-12-07T21:19:54.684Z,38.70
2018-12-07T21:22:28.401Z,38.53
2018-12-07T21:25:05.567Z,38.37
2018-12-07T21:27:38.693Z,39.10
2018-12-07T21:31:05.908Z,38.70
2018-12-07T21:33:55.143Z,40.10
2018-12-07T21:36:41.969Z,40.60
2018-12-07T21:39:26.537Z,41.00
2018-12-07T21:42:00.083Z,40.63
2018-12-07T21:44:33.101Z,39.47
2018-12-07T21:47:06.287Z,40.80
2018-12-07T21:49:50.820Z,40.80
2018-12-07T21:52:31.150Z,43.10
2018-12-07T21:55:04.403Z,43.23
2018-12-07T21:57:37.402Z,42.07
2018-12-07T22:00:10.468Z,44.37
2018-12-07T22:02:43.931Z,43.70
2018-12-07T22:05:16.896Z,43.20
2018-12-07T22:07:50.177Z,43.87
2018-12-07T22:10:26.830Z,42.33
2018-12-07T22:12:59.698Z,42.97
2018-12-07T22:15:32.801Z,44.37
2018-12-07T22:18:09.117Z,41.93
2018-12-07T22:20:46.261Z,43.67
2018-12-07T22:23:19.572Z,42.83
2018-12-07T22:25:56.713Z,43.23
2018-12-07T22:28:29.678Z,42.30
2018-12-07T22:31:02.700Z,42.13
2018-12-07T22:33:34.996Z,43.83
2018-12-07T22:36:09.591Z,42.73
2018-12-07T22:38:41.873Z,40.20
2018-12-07T22:41:14.739Z,40.70
2018-12-07T22:43:47.099Z,37.03
2018-12-07T22:46:20.196Z,39.07
2018-12-07T22:48:52.850Z,40.80
2018-12-07T22:51:25.908Z,40.33
2018-12-07T22:53:58.317Z,41.50
2018-12-07T22:56:31.306Z,40.83
2018-12-07T22:59:03.527Z,40.97
2018-12-07T23:01:39.776Z,41.00
2018-12-07T23:04:12.836Z,44.53
2018-12-07T23:06:49.128Z,44.27
2018-12-07T23:09:21.305Z,43.23
2018-12-07T23:11:54.289Z,43.60
2018-12-07T23:14:26.475Z,43.37
2018-12-07T23:17:00.121Z,43.23
2018-12-07T23:19:34.674Z,42.93
2018-12-07T23:22:07.609Z,45.47
2018-12-07T23:24:41.097Z,47.43
2018-12-07T23:27:13.660Z,46.70
2018-12-07T23:29:46.125Z,49.13
2018-12-07T23:32:22.487Z,47.67
2018-12-07T23:34:56.397Z,45.73
2018-12-07T23:37:29.672Z,47.80
2018-12-07T23:40:02.671Z,51.47
2018-12-07T23:42:35.894Z,51.27
2018-12-07T23:45:08.904Z,49.63
2018-12-07T23:47:41.504Z,49.23
2018-12-07T23:50:14.718Z,49.33
2018-12-07T23:52:51.044Z,50.77
2018-12-07T23:55:23.252Z,50.97
2018-12-07T23:58:01.373Z,50.03
